Time;durP1;ratioP1;P1;durP2;ratioP2;P2;SDS_P1;SDS_P2;PMS_P1;PMS_P2;Temp;Humidity;BMP_temperature;BMP_pressure;BME280_temperature;BME280_humidity;BME280_pressure;Samples;Min_cycle;Max_cycle;Signal;HPM_P1;HPM_P2
2023/04/02 00:00:09;;;;;;;3.78;2.25;;;;;;;6.47;100.00;99877.25;5041815;28;20038;-77
2023/04/02 00:03:08;;;;;;;4.35;2.40;;;;;;;6.56;100.00;99892.97;5043017;28;20033;-77
2023/04/02 00:05:50;;;;;;;3.65;2.00;;;;;;;6.47;100.00;99893.00;5045581;28;20041;-77
2023/04/02 00:08:39;;;;;;;4.20;2.00;;;;;;;6.49;100.00;99901.69;5043241;28;20041;-77
2023/04/02 00:11:06;;;;;;;3.75;2.00;;;;;;;6.45;100.00;99899.97;5042304;28;20045;-77
2023/04/02 00:13:39;;;;;;;4.15;2.00;;;;;;;6.46;100.00;99909.56;5046849;28;20028;-77
2023/04/02 00:16:07;;;;;;;3.35;1.88;;;;;;;6.33;100.00;99908.69;5045393;28;20037;-77
2023/04/02 00:18:39;;;;;;;3.05;1.70;;;;;;;6.35;100.00;99912.19;5042668;28;20484;-77
2023/04/02 00:21:20;;;;;;;2.70;1.40;;;;;;;6.38;100.00;99913.06;5044922;28;20306;-77
2023/04/02 00:23:46;;;;;;;3.08;1.50;;;;;;;6.43;100.00;99917.44;5043195;28;20041;-76
2023/04/02 00:26:35;;;;;;;3.17;1.52;;;;;;;6.47;100.00;99929.69;5047892;28;20029;-76
2023/04/02 00:29:03;;;;;;;4.13;1.85;;;;;;;6.45;100.00;99926.19;5041215;28;20067;-77
2023/04/02 00:31:29;;;;;;;3.05;1.55;;;;;;;6.34;100.00;99928.78;5042050;28;20061;-77
2023/04/02 00:33:56;;;;;;;3.17;1.70;;;;;;;6.41;100.00;99939.28;5041994;28;20076;-77
2023/04/02 00:36:28;;;;;;;3.63;2.00;;;;;;;6.38;100.00;99936.66;5042540;28;20029;-76
2023/04/02 00:38:57;;;;;;;4.88;1.90;;;;;;;6.32;100.00;99945.38;5045800;28;20061;-77
2023/04/02 00:41:28;;;;;;;3.47;1.70;;;;;;;6.29;100.00;99950.63;5044990;28;20143;-77
2023/04/02 00:43:56;;;;;;;4.43;1.92;;;;;;;6.34;100.00;99952.38;5041791;28;20488;-77
2023/04/02 00:46:45;;;;;;;4.38;1.85;;;;;;;6.32;100.00;99955.88;5047521;28;20128;-77
2023/04/02 00:49:19;;;;;;;3.33;1.90;;;;;;;6.29;100.00;99956.75;5039922;28;20033;-76
2023/04/02 00:51:52;;;;;;;4.82;2.42;;;;;;;6.11;100.00;99957.56;5045058;28;20047;-76
2023/04/02 00:54:21;;;;;;;4.65;2.65;;;;;;;6.05;100.00;99964.53;5041776;28;20045;-77
2023/04/02 00:56:51;;;;;;;4.55;2.13;;;;;;;6.17;100.00;99972.41;5044164;28;20086;-77
2023/04/02 00:59:28;;;;;;;6.10;3.08;;;;;;;6.11;100.00;99975.91;5040443;28;20088;-77
2023/04/02 01:02:00;;;;;;;4.20;2.78;;;;;;;5.98;100.00;99976.75;5042776;28;20086;-77
2023/04/02 01:04:33;;;;;;;;;;;;;;;5.95;100.00;99981.97;5043912;28;20068;-77
2023/04/02 01:07:03;;;;;;;;;;;;;;;5.92;100.00;99984.53;5042602;28;19954;-77
2023/04/02 01:10:01;;;;;;;5.32;2.97;;;;;;;5.94;100.00;99985.44;5044096;28;19913;-77
2023/04/02 01:13:02;;;;;;;4.70;2.85;;;;;;;5.90;100.00;99994.13;5040342;28;20140;-77
2023/04/02 01:15:41;;;;;;;5.55;3.53;;;;;;;5.88;100.00;99999.34;5042557;28;20044;-76
2023/04/02 01:18:32;;;;;;;4.13;2.67;;;;;;;5.89;100.00;100008.09;5047130;28;20052;-77
2023/04/02 01:21:07;;;;;;;4.90;2.92;;;;;;;5.91;100.00;100006.34;5031817;28;20247;-77
2023/04/02 01:23:51;;;;;;;4.90;3.03;;;;;;;5.91;100.00;100016.84;5041326;28;20539;-77
2023/04/02 01:26:36;;;;;;;4.90;3.03;;;;;;;5.88;100.00;100016.81;5040083;28;20033;-77
2023/04/02 01:29:09;;;;;;;4.78;2.85;;;;;;;5.84;100.00;100020.28;5044375;28;20568;-76
2023/04/02 01:31:36;;;;;;;5.50;2.83;;;;;;;5.75;100.00;100022.88;5042779;28;20028;-77
2023/04/02 01:34:04;;;;;;;4.90;2.95;;;;;;;5.76;100.00;100030.72;5038966;28;20167;-77
2023/04/02 01:36:39;;;;;;;4.32;2.78;;;;;;;5.84;100.00;100030.75;5046832;28;20040;-77
2023/04/02 01:39:22;;;;;;;5.07;3.05;;;;;;;5.87;100.00;100036.91;5040138;28;20037;-77
2023/04/02 01:42:00;;;;;;;4.90;3.08;;;;;;;5.89;100.00;100050.88;5040419;28;20091;-77
2023/04/02 01:44:40;;;;;;;6.63;3.83;;;;;;;5.88;100.00;100048.25;5040212;28;20029;-76
2023/04/02 01:47:10;;;;;;;6.15;3.20;;;;;;;5.84;100.00;100056.94;5045325;28;20041;-77
2023/04/02 01:49:36;;;;;;;7.63;3.60;;;;;;;5.71;100.00;100062.13;5039545;28;20075;-76
2023/04/02 01:52:02;;;;;;;8.55;3.30;;;;;;;5.79;100.00;100069.13;5043520;28;20112;-77
2023/04/02 01:54:30;;;;;;;7.13;3.53;;;;;;;5.86;100.00;100076.16;5040557;28;20078;-77
2023/04/02 01:56:56;;;;;;;6.30;3.15;;;;;;;5.89;100.00;100073.56;5040290;28;20154;-77
2023/04/02 01:59:23;;;;;;;6.18;3.83;;;;;;;5.87;100.00;100072.69;5044448;28;20021;-76
2023/04/02 02:02:04;;;;;;;5.38;3.63;;;;;;;5.84;100.00;100080.50;5044637;28;20069;-77
2023/04/02 02:04:32;;;;;;;7.22;4.10;;;;;;;5.68;100.00;100075.19;5039034;28;20491;-77
2023/04/02 02:07:00;;;;;;;7.68;3.83;;;;;;;5.64;100.00;100086.50;5041129;28;20036;-77
2023/04/02 02:09:31;;;;;;;7.20;4.22;;;;;;;5.49;100.00;100094.25;5040196;28;20021;-77
2023/04/02 02:11:57;;;;;;;7.53;4.93;;;;;;;5.46;100.00;100096.84;5039721;28;20502;-77
2023/04/02 02:14:28;;;;;;;9.57;5.38;;;;;;;5.35;100.00;100109.00;5046649;28;20041;-77
2023/04/02 02:16:56;;;;;;;10.45;4.45;;;;;;;5.39;100.00;100110.75;5022388;28;20029;-76
2023/04/02 02:19:24;;;;;;;8.48;5.05;;;;;;;5.46;100.00;100121.28;5042599;28;20043;-77
2023/04/02 02:21:52;;;;;;;9.30;4.60;;;;;;;5.37;100.00;100112.47;5037890;28;20451;-76
2023/04/02 02:24:26;;;;;;;7.38;4.25;;;;;;;5.35;100.00;100127.31;5041316;28;20043;-76
2023/04/02 02:27:00;;;;;;;8.38;4.90;;;;;;;5.33;100.00;100121.19;5043062;28;20036;-77
2023/04/02 02:29:28;;;;;;;8.85;5.53;;;;;;;5.36;100.00;100135.16;5042137;28;20036;-76
2023/04/02 02:31:56;;;;;;;7.18;5.05;;;;;;;5.35;100.00;100130.78;5039602;28;20037;-76
2023/04/02 02:34:32;;;;;;;10.38;5.55;;;;;;;5.34;100.00;100139.50;5047901;28;20462;-76
2023/04/02 02:37:06;;;;;;;9.68;5.13;;;;;;;5.30;100.00;100144.69;5047368;28;20403;-77
2023/04/02 02:39:41;;;;;;;8.73;5.82;;;;;;;5.18;100.00;100146.31;5048613;28;20039;-77
2023/04/02 02:42:19;;;;;;;8.63;5.40;;;;;;;5.10;100.00;100154.97;5044532;28;20041;-77
2023/04/02 02:44:50;;;;;;;9.05;5.13;;;;;;;5.21;100.00;100164.69;5046379;28;20040;-76
2023/04/02 02:47:20;;;;;;;7.72;5.22;;;;;;;5.20;100.00;100157.69;5047260;28;20495;-77
2023/04/02 02:49:50;;;;;;;9.77;5.40;;;;;;;5.21;100.00;100164.69;5044333;28;20033;-76
2023/04/02 02:52:24;;;;;;;10.73;6.20;;;;;;;5.27;100.00;100180.44;5047068;28;20086;-76
2023/04/02 02:54:59;;;;;;;11.50;5.93;;;;;;;5.31;100.00;100177.84;5046004;28;20065;-77
2023/04/02 02:57:34;;;;;;;9.30;5.15;;;;;;;5.39;100.00;100184.03;5050714;28;20029;-76
2023/04/02 03:00:02;;;;;;;8.98;5.25;;;;;;;5.38;100.00;100182.28;5044271;28;20029;-77
2023/04/02 03:02:34;;;;;;;13.15;5.43;;;;;;;5.39;100.00;100191.88;5047058;28;20037;-77
2023/04/02 03:05:01;;;;;;;9.18;4.88;;;;;;;5.37;100.00;100201.44;5049272;28;20033;-76
2023/04/02 03:07:29;;;;;;;10.43;5.50;;;;;;;5.37;100.00;100202.34;5037099;28;20032;-76
2023/04/02 03:10:19;;;;;;;10.82;5.75;;;;;;;5.37;100.00;100201.44;5047807;28;20640;-76
2023/04/02 03:13:09;;;;;;;10.45;5.55;;;;;;;5.23;100.00;100198.69;5047445;28;20041;-76
2023/04/02 03:15:53;;;;;;;10.73;5.35;;;;;;;5.23;100.00;100217.88;5045752;28;20044;-76
2023/04/02 03:18:42;;;;;;;11.13;5.68;;;;;;;5.13;100.00;100223.88;5044980;28;20128;-76
2023/04/02 03:21:23;;;;;;;11.10;6.18;;;;;;;5.01;100.00;100231.63;5047382;28;20512;-77
2023/04/02 03:24:22;;;;;;;11.63;6.45;;;;;;;4.88;100.00;100232.31;5047187;28;20045;-77
2023/04/02 03:26:57;;;;;;;9.40;5.35;;;;;;;4.78;100.00;100234.81;5046824;28;20033;-76
2023/04/02 03:29:26;;;;;;;11.27;5.57;;;;;;;4.67;100.00;100235.56;5046842;28;20048;-77
2023/04/02 03:31:56;;;;;;;10.93;4.80;;;;;;;4.65;100.00;100255.56;5054442;28;20028;-78
2023/04/02 03:34:28;;;;;;;10.00;5.80;;;;;;;4.66;100.00;100258.16;5045093;28;20091;-76
2023/04/02 03:37:29;;;;;;;11.10;5.53;;;;;;;4.51;100.00;100258.00;5046145;28;20029;-77
2023/04/02 03:40:01;;;;;;;9.70;5.97;;;;;;;4.46;100.00;100254.44;5051959;28;20029;-76
2023/04/02 03:42:41;;;;;;;9.35;5.53;;;;;;;4.51;100.00;100273.66;5044076;28;20068;-77
2023/04/02 03:45:21;;;;;;;11.48;6.22;;;;;;;4.55;100.00;100272.84;5066592;22;20112;-74
2023/04/02 03:47:55;;;;;;;11.50;4.70;;;;;;;4.55;100.00;100280.69;5040873;28;20097;-75
2023/04/02 03:50:31;;;;;;;11.93;6.05;;;;;;;4.49;100.00;100291.06;5042858;28;20411;-75
2023/04/02 03:53:01;;;;;;;10.30;5.53;;;;;;;4.44;100.00;100295.34;5044130;28;20036;-74
2023/04/02 03:55:36;;;;;;;9.48;5.25;;;;;;;4.46;100.00;100306.69;5043109;28;20040;-74
2023/04/02 03:58:20;;;;;;;10.52;5.38;;;;;;;4.41;100.00;100298.78;5031256;28;20032;-75
2023/04/02 04:01:12;;;;;;;7.07;4.43;;;;;;;4.46;100.00;100318.03;5040133;28;20033;-74
2023/04/02 04:03:45;;;;;;;8.75;4.68;;;;;;;4.45;100.00;100326.69;5040861;28;20120;-74
2023/04/02 04:06:19;;;;;;;8.68;4.45;;;;;;;4.38;100.00;100330.09;5042397;28;20049;-75
2023/04/02 04:08:53;;;;;;;9.02;4.00;;;;;;;4.38;100.00;100336.19;5044192;28;20155;-74
2023/04/02 04:11:25;;;;;;;6.93;3.83;;;;;;;4.36;100.00;100343.13;5044638;28;20471;-74
2023/04/02 04:14:18;;;;;;;11.38;4.53;;;;;;;4.34;100.00;100350.06;5047536;28;20033;-74
2023/04/02 04:16:54;;;;;;;7.43;3.83;;;;;;;4.42;100.00;100351.91;5026801;28;20055;-74
2023/04/02 04:19:34;;;;;;;11.38;3.72;;;;;;;4.33;100.00;100363.09;5044533;28;20048;-75
2023/04/02 04:22:32;;;;;;;6.57;3.75;;;;;;;4.30;100.00;100369.16;5045361;28;20036;-75
2023/04/02 04:25:29;;;;;;;8.00;3.80;;;;;;;4.37;100.00;100376.22;5038982;28;20069;-74
2023/04/02 04:28:23;;;;;;;7.20;3.67;;;;;;;4.47;100.00;100381.63;5041053;28;20059;-75
2023/04/02 04:30:58;;;;;;;8.68;3.97;;;;;;;4.52;100.00;100386.06;5040505;28;20458;-75
2023/04/02 04:33:38;;;;;;;9.73;4.47;;;;;;;4.51;100.00;100389.53;5042136;28;20025;-75
2023/04/02 04:36:17;;;;;;;6.28;3.40;;;;;;;4.45;100.00;100402.47;5040037;28;20033;-75
2023/04/02 04:38:54;;;;;;;7.10;3.45;;;;;;;4.38;100.00;100411.97;5041684;28;20063;-75
2023/04/02 04:41:26;;;;;;;8.45;3.53;;;;;;;4.46;100.00;100417.31;5044013;28;20439;-75
2023/04/02 04:44:17;;;;;;;6.68;3.15;;;;;;;4.46;100.00;100419.06;5041815;28;20043;-75
2023/04/02 04:46:54;;;;;;;5.78;3.38;;;;;;;4.35;100.00;100435.44;5043566;28;20025;-75
2023/04/02 04:49:40;;;;;;;6.72;3.72;;;;;;;4.40;100.00;100432.88;5041759;28;20025;-75
2023/04/02 04:52:31;;;;;;;6.15;3.20;;;;;;;4.32;100.00;100439.72;5041145;28;20437;-74
2023/04/02 04:54:57;;;;;;;6.10;2.80;;;;;;;4.28;100.00;100449.25;5040254;28;20041;-74
2023/04/02 04:57:31;;;;;;;6.25;3.40;;;;;;;4.32;100.00;100458.91;5041915;28;20395;-75
2023/04/02 05:00:05;;;;;;;6.20;3.20;;;;;;;4.33;100.00;100462.41;5044370;28;20048;-74
2023/04/02 05:02:39;;;;;;;7.47;3.00;;;;;;;4.31;100.00;100464.97;5039832;28;20463;-74
2023/04/02 05:05:18;;;;;;;6.25;3.25;;;;;;;4.26;100.00;100469.22;5040062;28;20116;-75
2023/04/02 05:07:50;;;;;;;5.95;2.67;;;;;;;4.27;100.00;100484.06;5040543;28;20033;-75
2023/04/02 05:10:30;;;;;;;5.88;3.50;;;;;;;4.27;100.00;100485.78;5045091;28;20040;-75
2023/04/02 05:13:03;;;;;;;5.93;2.70;;;;;;;4.24;100.00;100485.72;5041237;28;20029;-75
2023/04/02 05:15:35;;;;;;;8.40;2.55;;;;;;;4.25;100.00;100491.00;5041452;28;20037;-74
2023/04/02 05:18:26;;;;;;;4.00;1.92;;;;;;;4.28;100.00;100495.38;5039255;28;20462;-75
2023/04/02 05:21:06;;;;;;;7.15;2.30;;;;;;;4.33;100.00;100501.59;5039441;28;20399;-75
2023/04/02 05:23:39;;;;;;;3.80;2.35;;;;;;;4.35;100.00;100508.59;5044634;28;20553;-74
2023/04/02 05:26:10;;;;;;;5.45;2.17;;;;;;;4.35;100.00;100512.94;5040079;28;20033;-75
2023/04/02 05:29:01;;;;;;;6.10;2.72;;;;;;;4.36;100.00;100518.19;5042323;28;20479;-75
2023/04/02 05:31:42;;;;;;;6.60;2.22;;;;;;;4.37;100.00;100519.94;5041940;28;20060;-74
2023/04/02 05:34:10;;;;;;;8.85;3.22;;;;;;;4.33;100.00;100525.97;5042581;28;20560;-75
2023/04/02 05:36:36;;;;;;;3.95;1.67;;;;;;;4.45;100.00;100530.53;5040455;28;20029;-75
2023/04/02 05:39:01;;;;;;;4.15;1.80;;;;;;;4.43;100.00;100541.81;5040992;28;20087;-75
2023/04/02 05:41:40;;;;;;;6.88;2.10;;;;;;;4.48;100.00;100535.84;5043972;28;20055;-74
2023/04/02 05:44:15;;;;;;;4.10;1.70;;;;;;;4.59;100.00;100549.09;5043250;28;20033;-74
2023/04/02 05:46:58;;;;;;;3.42;1.60;;;;;;;4.65;100.00;100558.78;5042606;28;20065;-74
2023/04/02 05:49:41;;;;;;;5.05;1.92;;;;;;;4.71;100.00;100557.16;5038344;28;20040;-75
2023/04/02 05:52:16;;;;;;;4.15;1.42;;;;;;;4.71;100.00;100554.53;5039768;28;20056;-75
2023/04/02 05:54:50;;;;;;;5.10;1.75;;;;;;;4.67;100.00;100568.41;5038382;28;20037;-74
2023/04/02 05:57:24;;;;;;;3.53;1.25;;;;;;;4.74;100.00;100569.41;5042161;28;20381;-74
2023/04/02 05:59:55;;;;;;;5.45;1.38;;;;;;;4.77;100.00;100569.47;5042071;28;20033;-75
2023/04/02 06:02:40;;;;;;;2.38;1.40;;;;;;;4.75;100.00;100586.88;5040369;28;20029;-75
2023/04/02 06:05:15;;;;;;;4.10;1.70;;;;;;;4.67;100.00;100588.47;5040093;28;20087;-74
2023/04/02 06:07:52;;;;;;;6.03;2.03;;;;;;;4.64;100.00;100594.50;5041982;28;20025;-74
2023/04/02 06:10:27;;;;;;;5.03;1.60;;;;;;;4.63;100.00;100603.19;5043375;28;20075;-75
2023/04/02 06:13:05;;;;;;;3.78;1.35;;;;;;;4.68;100.00;100601.53;5040614;28;20041;-75
2023/04/02 06:15:37;;;;;;;4.88;1.70;;;;;;;4.60;100.00;100608.38;5038778;28;20029;-74
2023/04/02 06:18:15;;;;;;;3.97;1.75;;;;;;;4.60;100.00;100608.38;5040380;28;20033;-75
2023/04/02 06:20:42;;;;;;;4.40;1.95;;;;;;;4.58;100.00;100616.19;5038579;28;20029;-74
2023/04/02 06:23:22;;;;;;;4.15;1.30;;;;;;;4.66;100.00;100626.78;5041904;28;20039;-74
2023/04/02 06:26:02;;;;;;;6.05;2.33;;;;;;;4.69;100.00;100634.69;5040848;28;20067;-75
2023/04/02 06:28:47;;;;;;;3.10;1.60;;;;;;;4.85;100.00;100630.63;5039690;28;20111;-75
2023/04/02 06:31:44;;;;;;;5.18;1.70;;;;;;;4.90;100.00;100639.44;5040502;28;20057;-74
2023/04/02 06:34:17;;;;;;;6.03;1.58;;;;;;;4.89;100.00;100649.88;5042804;28;20045;-75
2023/04/02 06:36:53;;;;;;;3.45;1.80;;;;;;;4.71;100.00;100645.16;5038619;28;20041;-75
2023/04/02 06:39:22;;;;;;;6.97;1.20;;;;;;;4.70;100.00;100649.53;5041871;28;20057;-74
2023/04/02 06:41:59;;;;;;;4.35;1.27;;;;;;;4.74;100.00;100661.81;5040181;28;20686;-74
2023/04/02 06:44:43;;;;;;;3.03;1.42;;;;;;;4.60;100.00;100665.88;5041133;28;20044;-74
2023/04/02 06:47:37;;;;;;;3.78;1.50;;;;;;;4.76;100.00;100664.44;5042148;28;20155;-74
2023/04/02 06:50:15;;;;;;;3.03;1.30;;;;;;;4.87;100.00;100670.75;5041353;28;20041;-75
2023/04/02 06:52:50;;;;;;;2.97;1.30;;;;;;;4.82;100.00;100673.31;5025399;28;20090;-75
2023/04/02 06:55:19;;;;;;;3.22;1.13;;;;;;;4.87;100.00;100675.09;5051466;28;20121;-74
2023/04/02 06:57:45;;;;;;;3.35;1.27;;;;;;;4.78;100.00;100692.38;5044317;28;20056;-74
2023/04/02 07:00:24;;;;;;;2.38;1.02;;;;;;;4.75;100.00;100694.94;5040280;28;20033;-75
2023/04/02 07:02:52;;;;;;;3.75;1.40;;;;;;;4.91;100.00;100703.09;5042807;28;20032;-75
2023/04/02 07:05:17;;;;;;;3.53;1.10;;;;;;;5.01;100.00;100697.19;5038571;28;20029;-75
2023/04/02 07:07:46;;;;;;;3.47;1.50;;;;;;;4.99;100.00;100706.75;5041516;28;20026;-75
2023/04/02 07:10:12;;;;;;;5.53;1.23;;;;;;;4.96;99.22;100714.53;5041926;28;20690;-75
2023/04/02 07:12:37;;;;;;;3.10;1.20;;;;;;;5.01;98.13;100718.13;5039996;28;20128;-74
2023/04/02 07:15:04;;;;;;;4.43;1.27;;;;;;;5.10;97.08;100718.28;5041286;28;20457;-74
2023/04/02 07:17:30;;;;;;;2.22;0.90;;;;;;;5.02;96.42;100725.09;5039249;28;20033;-74
2023/04/02 07:19:55;;;;;;;2.45;0.95;;;;;;;5.02;96.25;100725.09;5039978;28;20033;-75
2023/04/02 07:22:22;;;;;;;3.92;1.23;;;;;;;5.04;96.79;100726.03;5045143;28;20087;-75
2023/04/02 07:24:52;;;;;;;2.58;1.00;;;;;;;5.16;96.69;100733.22;5048467;28;20037;-75
2023/04/02 07:27:17;;;;;;;2.97;1.10;;;;;;;5.22;97.15;100736.84;5043469;28;20048;-74
2023/04/02 07:29:43;;;;;;;3.58;1.10;;;;;;;5.18;96.61;100737.63;5044980;28;20033;-75
2023/04/02 07:32:10;;;;;;;3.03;1.23;;;;;;;5.18;96.44;100734.13;5046253;28;20025;-74
2023/04/02 07:34:36;;;;;;;2.85;1.10;;;;;;;5.16;96.64;100747.19;5042706;28;20037;-75
2023/04/02 07:37:02;;;;;;;2.05;0.77;;;;;;;5.22;96.61;100755.16;5046140;28;20439;-74
2023/04/02 07:39:28;;;;;;;2.30;1.10;;;;;;;5.28;94.98;100752.66;5045877;28;20036;-74
2023/04/02 07:41:56;;;;;;;3.30;1.10;;;;;;;5.06;94.64;100763.56;5042216;28;20092;-75
2023/04/02 07:44:21;;;;;;;3.40;1.10;;;;;;;4.99;94.75;100761.66;5045721;28;20029;-75
2023/04/02 07:46:47;;;;;;;1.98;0.93;;;;;;;5.14;95.03;100775.06;5042519;28;20139;-75
2023/04/02 07:49:12;;;;;;;3.63;1.25;;;;;;;5.12;93.89;100771.53;5045895;28;20080;-75
2023/04/02 07:51:38;;;;;;;3.38;1.08;;;;;;;5.00;93.97;100776.50;5045309;28;20119;-75
2023/04/02 07:54:03;;;;;;;1.38;0.60;;;;;;;5.03;93.84;100787.03;5042300;28;20068;-75
2023/04/02 07:56:29;;;;;;;3.45;0.90;;;;;;;5.06;94.62;100787.13;5045885;28;20057;-75
2023/04/02 07:58:54;;;;;;;3.30;1.15;;;;;;;4.90;95.55;100798.09;5045300;28;20557;-75
2023/04/02 08:01:25;;;;;;;3.20;1.13;;;;;;;4.93;95.78;100800.78;5044796;28;20139;-75
2023/04/02 08:03:52;;;;;;;2.88;1.20;;;;;;;4.94;95.35;100805.16;5043721;28;20104;-75
2023/04/02 08:06:18;;;;;;;2.80;1.20;;;;;;;4.96;95.57;100813.94;5043540;28;20029;-74
2023/04/02 08:08:43;;;;;;;2.05;0.95;;;;;;;4.86;95.13;100812.84;5043586;28;20443;-75
2023/04/02 08:11:09;;;;;;;4.05;1.27;;;;;;;4.87;95.31;100821.56;5049373;28;20040;-75
2023/04/02 08:13:35;;;;;;;3.25;1.13;;;;;;;4.96;94.13;100830.50;5043071;28;20040;-75
2023/04/02 08:16:01;;;;;;;3.33;1.02;;;;;;;5.00;94.83;100831.44;5043959;28;20041;-75
2023/04/02 08:18:27;;;;;;;4.32;0.90;;;;;;;5.13;94.17;100835.19;5045019;28;20033;-75
2023/04/02 08:20:53;;;;;;;2.85;0.93;;;;;;;5.21;93.45;100834.53;5044053;28;20064;-75
2023/04/02 08:23:20;;;;;;;4.70;1.00;;;;;;;5.28;93.16;100835.50;5045332;28;20490;-75
2023/04/02 08:25:46;;;;;;;2.30;0.90;;;;;;;5.41;93.11;100837.53;5041905;28;20065;-75
2023/04/02 08:28:11;;;;;;;4.25;1.17;;;;;;;5.54;92.88;100843.88;5044647;28;20117;-75
2023/04/02 08:30:37;;;;;;;3.95;1.08;;;;;;;5.53;91.90;100852.59;5044878;28;20072;-75
2023/04/02 08:33:03;;;;;;;6.07;1.40;;;;;;;5.37;91.57;100846.19;5044433;28;20083;-75
2023/04/02 08:35:28;;;;;;;3.15;1.20;;;;;;;5.24;91.02;100855.50;5041207;28;20041;-75
2023/04/02 08:37:54;;;;;;;2.08;0.82;;;;;;;5.24;91.80;100850.28;5044899;28;20033;-75
2023/04/02 08:40:38;;;;;;;4.95;0.93;;;;;;;5.25;91.11;100862.50;5047989;28;20037;-75
2023/04/02 08:43:36;;;;;;;3.28;1.00;;;;;;;5.36;90.81;100867.06;5047161;28;20044;-75
2023/04/02 08:46:20;;;;;;;3.03;1.20;;;;;;;5.40;90.85;100874.16;5043897;28;20491;-75
2023/04/02 08:48:54;;;;;;;3.47;0.93;;;;;;;5.49;91.22;100876.94;5042589;28;20064;-75
2023/04/02 08:51:31;;;;;;;5.05;1.10;;;;;;;5.63;90.04;100877.19;5044074;28;20033;-75
2023/04/02 08:54:07;;;;;;;2.17;0.65;;;;;;;5.58;91.31;100881.47;5043133;28;20450;-75
2023/04/02 08:56:42;;;;;;;6.20;1.15;;;;;;;5.26;90.23;100879.09;5042139;28;20028;-74
2023/04/02 08:59:32;;;;;;;4.95;1.00;;;;;;;5.37;91.12;100887.16;5042771;28;20769;-75
2023/04/02 09:02:27;;;;;;;5.13;1.25;;;;;;;5.39;90.72;100891.56;5043979;28;20044;-75
2023/04/02 09:04:54;;;;;;;3.28;0.80;;;;;;;5.53;89.58;100884.03;5040916;28;20491;-75
2023/04/02 09:07:20;;;;;;;1.90;0.90;;;;;;;5.74;89.91;100890.50;5044547;28;20033;-75
2023/04/02 09:09:48;;;;;;;3.80;1.20;;;;;;;5.82;88.24;100897.69;5043001;28;20039;-74
2023/04/02 09:12:28;;;;;;;3.92;1.15;;;;;;;5.87;88.70;100897.78;5040798;28;20055;-75
2023/04/02 09:15:12;;;;;;;3.25;1.13;;;;;;;5.85;87.29;100909.94;5045337;28;20044;-75
2023/04/02 09:17:38;;;;;;;4.18;1.15;;;;;;;5.88;87.88;100904.75;5044164;28;20483;-75
2023/04/02 09:20:20;;;;;;;5.18;1.20;;;;;;;5.99;87.51;100918.97;5042362;28;20373;-75
2023/04/02 09:22:49;;;;;;;4.88;1.38;;;;;;;5.79;86.25;100920.28;5040723;28;20122;-75
2023/04/02 09:25:21;;;;;;;3.92;1.08;;;;;;;5.76;87.55;100928.09;5042768;28;20563;-75
2023/04/02 09:27:49;;;;;;;3.25;1.20;;;;;;;5.74;87.79;100929.78;5046323;28;20087;-75
2023/04/02 09:30:24;;;;;;;5.03;1.55;;;;;;;5.80;87.73;100936.03;5042210;28;20037;-75
2023/04/02 09:32:51;;;;;;;6.00;1.73;;;;;;;5.62;88.63;100943.53;5042985;28;20029;-75
2023/04/02 09:35:28;;;;;;;4.78;1.42;;;;;;;5.68;89.99;100943.66;5043240;28;20484;-75
2023/04/02 09:38:16;;;;;;;4.97;1.25;;;;;;;5.66;90.23;100943.63;5042587;28;20052;-75
2023/04/02 09:40:53;;;;;;;8.02;1.52;;;;;;;5.80;90.13;100950.88;5043467;28;20041;-75
2023/04/02 09:43:25;;;;;;;4.70;1.23;;;;;;;5.93;89.51;100948.56;5040899;28;20067;-75
2023/04/02 09:46:20;;;;;;;2.47;0.82;;;;;;;5.96;89.32;100958.22;5042972;28;20086;-75
2023/04/02 09:48:52;;;;;;;2.47;1.02;;;;;;;6.06;89.00;100954.91;5077624;22;20056;-73
2023/04/02 09:51:23;;;;;;;2.67;1.23;;;;;;;6.24;86.78;100959.63;5083451;28;20060;-73
2023/04/02 09:54:00;;;;;;;3.63;1.35;;;;;;;6.49;86.09;100966.16;5077520;28;20033;-74
2023/04/02 09:56:26;;;;;;;4.18;1.23;;;;;;;6.58;84.30;100965.47;5081071;28;20036;-74
2023/04/02 09:59:16;;;;;;;4.63;1.25;;;;;;;6.66;83.26;100973.47;5081846;28;20185;-74
2023/04/02 10:01:52;;;;;;;5.63;1.20;;;;;;;6.23;83.67;100980.56;5055722;28;20047;-74
2023/04/02 10:04:43;;;;;;;4.00;1.20;;;;;;;6.20;86.05;100977.88;5083314;28;20157;-74
2023/04/02 10:07:29;;;;;;;4.07;1.13;;;;;;;6.37;85.13;100984.34;5080546;28;20074;-74
2023/04/02 10:10:00;;;;;;;3.72;1.17;;;;;;;6.21;86.12;100987.50;5063294;28;20075;-74
2023/04/02 10:12:28;;;;;;;6.60;1.58;;;;;;;6.11;86.31;100991.72;5063011;28;20036;-74
2023/04/02 10:14:56;;;;;;;4.55;1.30;;;;;;;6.10;85.86;101001.31;5082903;28;20040;-74
2023/04/02 10:17:29;;;;;;;3.90;1.42;;;;;;;5.84;86.20;101005.09;5079410;28;20033;-74
2023/04/02 10:19:59;;;;;;;3.63;1.15;;;;;;;6.01;86.46;101008.97;5078550;28;20040;-75
2023/04/02 10:22:27;;;;;;;4.07;1.08;;;;;;;6.16;84.08;101013.66;5081407;28;20043;-74
2023/04/02 10:24:52;;;;;;;4.68;1.65;;;;;;;6.13;84.90;101008.31;5072116;28;20423;-74
2023/04/02 10:27:45;;;;;;;4.00;1.38;;;;;;;6.17;84.28;101020.63;5080978;28;20032;-75
2023/04/02 10:30:24;;;;;;;5.57;1.35;;;;;;;6.45;84.00;101016.81;5079529;28;20442;-75
2023/04/02 10:32:59;;;;;;;3.20;1.05;;;;;;;6.57;83.35;101011.75;5075383;28;20119;-75
2023/04/02 10:35:50;;;;;;;5.57;1.27;;;;;;;6.69;82.10;101023.34;5081797;28;20047;-74
2023/04/02 10:38:27;;;;;;;4.63;1.92;;;;;;;6.94;81.62;101022.91;5077460;28;20764;-75
2023/04/02 10:41:17;;;;;;;3.88;1.60;;;;;;;7.39;80.09;101024.50;5081115;28;20060;-74
2023/04/02 10:43:58;;;;;;;5.47;1.73;;;;;;;7.54;79.28;101015.06;5079818;28;20036;-74
2023/04/02 10:46:45;;;;;;;4.85;1.20;;;;;;;7.94;76.08;101020.81;5082714;28;20509;-75
2023/04/02 10:49:31;;;;;;;2.47;1.05;;;;;;;8.31;72.88;101028.28;5082338;28;20114;-74
2023/04/02 10:52:25;;;;;;;3.35;1.45;;;;;;;8.35;73.18;101032.72;5080029;28;20123;-74
2023/04/02 10:54:53;;;;;;;3.42;0.90;;;;;;;8.35;71.97;101035.34;5080766;28;20459;-74
2023/04/02 10:57:39;;;;;;;5.20;1.23;;;;;;;8.13;70.93;101043.84;5064646;28;20048;-74
2023/04/02 11:00:11;;;;;;;2.95;0.93;;;;;;;8.08;71.60;101038.53;5081405;28;20111;-75
2023/04/02 11:02:46;;;;;;;3.58;0.90;;;;;;;7.98;71.77;101046.28;5067098;28;20044;-75
2023/04/02 11:05:48;;;;;;;5.15;1.80;;;;;;;7.66;71.62;101047.63;5079428;28;20120;-74
2023/04/02 11:08:28;;;;;;;3.72;1.33;;;;;;;7.35;73.14;101050.69;5067601;28;20051;-74
2023/04/02 11:11:04;;;;;;;3.50;1.55;;;;;;;7.47;73.00;101062.25;5086601;28;20028;-74
2023/04/02 11:13:46;;;;;;;3.67;1.15;;;;;;;7.79;72.91;101059.19;5079446;28;20115;-74
2023/04/02 11:16:15;;;;;;;6.25;1.83;;;;;;;8.31;71.64;101059.84;5085968;28;20036;-75
2023/04/02 11:18:41;;;;;;;2.97;1.10;;;;;;;8.39;71.63;101057.34;5082412;28;20025;-75
2023/04/02 11:21:40;;;;;;;4.90;1.60;;;;;;;8.34;70.54;101062.50;5078564;28;20044;-75
2023/04/02 11:24:21;;;;;;;5.45;1.38;;;;;;;8.12;70.59;101063.09;5080632;28;20126;-75
2023/04/02 11:26:47;;;;;;;3.38;1.27;;;;;;;8.01;70.61;101070.88;5064354;28;20037;-74
2023/04/02 11:29:26;;;;;;;4.82;1.00;;;;;;;8.07;71.48;101081.47;5085176;28;20028;-75
2023/04/02 11:32:19;;;;;;;4.32;0.80;;;;;;;7.87;72.43;101078.56;5080977;28;20032;-75
2023/04/02 11:34:48;;;;;;;3.25;1.27;;;;;;;7.92;73.52;101073.38;5080992;28;20114;-75
2023/04/02 11:37:53;;;;;;;2.55;1.00;;;;;;;7.90;72.74;101078.63;5080442;28;20046;-75
2023/04/02 11:40:45;;;;;;;3.58;1.02;;;;;;;7.56;73.65;101086.88;4958706;28;20043;-75
2023/04/02 11:43:33;;;;;;;5.72;1.08;;;;;;;7.44;74.50;101100.69;4973118;28;20497;-74
2023/04/02 11:45:59;;;;;;;4.75;0.98;;;;;;;7.44;74.43;101093.72;5017805;28;20510;-75
2023/04/02 11:48:30;;;;;;;2.72;0.90;;;;;;;7.14;73.77;101099.34;5083617;28;20089;-75
2023/04/02 11:50:56;;;;;;;3.95;1.05;;;;;;;7.33;75.48;101107.53;5083660;28;20070;-74
2023/04/02 11:53:29;;;;;;;1.92;1.00;;;;;;;7.46;74.18;101114.75;5084873;28;20028;-75
2023/04/02 11:56:15;;;;;;;3.47;1.08;;;;;;;7.58;74.04;101116.69;5078904;28;20490;-75
2023/04/02 11:59:06;;;;;;;7.03;1.25;;;;;;;7.59;73.48;101115.81;5082308;28;20479;-73
2023/04/02 12:01:58;;;;;;;3.40;1.00;;;;;;;7.66;72.65;101130.81;5083930;28;20100;-75
2023/04/02 12:04:57;;;;;;;3.30;0.88;;;;;;;7.44;72.04;101135.75;5083617;28;20490;-74
2023/04/02 12:07:53;;;;;;;5.05;0.95;;;;;;;7.36;73.70;101132.13;5083390;28;20061;-74